Time;durP1;ratioP1;P1;durP2;ratioP2;P2;SDS_P1;SDS_P2;PMS_P1;PMS_P2;Temp;Humidity;BMP_temperature;BMP_pressure;BME280_temperature;BME280_humidity;BME280_pressure;Samples;Min_cycle;Max_cycle;Signal;HPM_P1;HPM_P2
2022/11/11 00:01:10;;;;;;;25.73;10.32;;;;;;;;;;5068782;28;20016;-56
2022/11/11 00:03:35;;;;;;;30.13;12.30;;;;;;;;;;5087667;28;20028;-55
2022/11/11 00:06:03;;;;;;;21.98;10.85;;;;;;;;;;5075973;28;20044;-56
2022/11/11 00:08:29;;;;;;;32.90;11.98;;;;;;;;;;5081568;28;20369;-55
2022/11/11 00:11:04;;;;;;;27.50;10.85;;;;;;;;;;5079627;28;20295;-56
2022/11/11 00:13:29;;;;;;;29.83;11.18;;;;;;;;;;5075956;28;20036;-56
2022/11/11 00:15:55;;;;;;;23.45;10.13;;;;;;;;;;5075074;28;20603;-56
2022/11/11 00:25:04;;;;;;;27.25;11.73;;;;;;;;;;5089099;28;20477;-55
2022/11/11 00:27:11;;;;;;;21.33;12.07;;;;;;;;;;5073972;28;20385;-55
2022/11/11 00:29:37;;;;;;;27.30;11.57;;;;;;;;;;5086087;28;20040;-56
2022/11/11 00:35:52;;;;;;;31.13;12.07;;;;;;;;;;5076363;28;20066;-55
2022/11/11 00:37:31;;;;;;;25.13;11.75;;;;;;;;;;5086241;28;20523;-55
2022/11/11 00:39:57;;;;;;;27.35;12.00;;;;;;;;;;5086221;28;20027;-55
2022/11/11 00:42:22;;;;;;;26.27;12.15;;;;;;;;;;5074143;28;20077;-56
2022/11/11 00:44:47;;;;;;;24.77;11.48;;;;;;;;;;5078475;28;20068;-56
2022/11/11 00:52:40;;;;;;;21.13;10.50;;;;;;;;;;5081059;28;20121;-55
2022/11/11 00:55:06;;;;;;;28.45;11.90;;;;;;;;;;5078174;28;20044;-56
2022/11/11 00:57:31;;;;;;;26.90;10.95;;;;;;;;;;5085786;28;20040;-55
2022/11/11 00:59:56;;;;;;;24.92;10.45;;;;;;;;;;5069839;28;20097;-56
2022/11/11 01:02:22;;;;;;;25.10;11.13;;;;;;;;;;5080747;28;20081;-55
2022/11/11 01:04:47;;;;;;;30.92;10.70;;;;;;;;;;5085939;28;20088;-56
2022/11/11 01:07:12;;;;;;;30.63;10.75;;;;;;;;;;5071770;28;20085;-55
2022/11/11 01:09:37;;;;;;;30.45;11.00;;;;;;;;;;5078654;28;20482;-55
2022/11/11 01:12:03;;;;;;;27.23;10.93;;;;;;;;;;5075915;28;20040;-56
2022/11/11 01:14:29;;;;;;;28.35;11.40;;;;;;;;;;5083086;28;20033;-56
2022/11/11 01:16:54;;;;;;;33.35;11.57;;;;;;;;;;5079021;28;20016;-55
2022/11/11 01:19:19;;;;;;;26.13;11.52;;;;;;;;;;5076821;28;20093;-56
2022/11/11 01:21:44;;;;;;;24.05;10.90;;;;;;;;;;5089694;28;20029;-56
2022/11/11 01:24:10;;;;;;;22.30;11.18;;;;;;;;;;5078957;28;20020;-57
2022/11/11 01:26:35;;;;;;;24.80;10.65;;;;;;;;;;5074408;28;20035;-56
2022/11/11 01:29:00;;;;;;;26.60;11.35;;;;;;;;;;5081723;28;20055;-56
2022/11/11 01:31:25;;;;;;;30.90;10.25;;;;;;;;;;5087348;28;20043;-56
2022/11/11 01:33:51;;;;;;;23.98;10.52;;;;;;;;;;5077530;28;20050;-55
2022/11/11 01:36:17;;;;;;;24.50;10.20;;;;;;;;;;5078100;28;20096;-56
2022/11/11 01:38:42;;;;;;;24.85;9.85;;;;;;;;;;5079599;28;20048;-56
2022/11/11 01:43:53;;;;;;;23.50;9.18;;;;;;;;;;5074499;28;20386;-56
2022/11/11 01:46:29;;;;;;;26.30;10.32;;;;;;;;;;5085384;28;20028;-56
2022/11/11 01:49:17;;;;;;;29.60;10.63;;;;;;;;;;5080695;28;20016;-56
2022/11/11 01:51:47;;;;;;;25.85;11.30;;;;;;;;;;5076794;28;20011;-56
2022/11/11 01:54:33;;;;;;;26.55;10.60;;;;;;;;;;5078302;28;20067;-56
2022/11/11 01:57:00;;;;;;;28.98;10.70;;;;;;;;;;5072923;28;20042;-55
2022/11/11 01:59:25;;;;;;;25.05;10.60;;;;;;;;;;5074413;28;20020;-55
2022/11/11 02:01:50;;;;;;;30.45;11.57;;;;;;;;;;5079430;28;20484;-56
2022/11/11 02:07:00;;;;;;;25.90;10.20;;;;;;;;;;5072716;28;20054;-55
2022/11/11 02:09:25;;;;;;;22.90;9.82;;;;;;;;;;5081817;28;20437;-57
2022/11/11 02:14:36;;;;;;;22.10;10.27;;;;;;;;;;5106656;27;20190;-56
2022/11/11 02:17:05;;;;;;;22.50;10.77;;;;;;;;;;5076137;28;20047;-55
2022/11/11 02:19:40;;;;;;;21.42;10.32;;;;;;;;;;5070053;28;20055;-56
2022/11/11 02:22:06;;;;;;;22.10;10.38;;;;;;;;;;5074252;28;20078;-55
2022/11/11 02:24:32;;;;;;;20.63;10.00;;;;;;;;;;5120639;27;20048;-56
2022/11/11 02:26:57;;;;;;;24.70;10.27;;;;;;;;;;5074582;27;20031;-56
2022/11/11 02:29:22;;;;;;;21.95;10.23;;;;;;;;;;5108573;27;20200;-55
2022/11/11 02:31:47;;;;;;;27.48;11.13;;;;;;;;;;5088315;28;20097;-55
2022/11/11 02:34:13;;;;;;;30.52;10.55;;;;;;;;;;5080190;28;20036;-56
2022/11/11 02:36:38;;;;;;;23.05;10.02;;;;;;;;;;5081902;28;20107;-55
2022/11/11 02:39:03;;;;;;;26.35;10.77;;;;;;;;;;5074194;28;20428;-55
2022/11/11 02:44:12;;;;;;;22.83;10.27;;;;;;;;;;5083602;28;20483;-55
2022/11/11 02:46:37;;;;;;;21.77;10.75;;;;;;;;;;5089622;28;20040;-56
2022/11/11 02:49:03;;;;;;;30.98;10.63;;;;;;;;;;5082303;28;20363;-55
2022/11/11 02:51:28;;;;;;;24.55;10.30;;;;;;;;;;5087743;28;20466;-55
2022/11/11 02:53:57;;;;;;;23.73;10.55;;;;;;;;;;5084978;28;20033;-56
2022/11/11 02:59:09;;;;;;;21.20;9.98;;;;;;;;;;5074940;28;20086;-56
2022/11/11 03:01:34;;;;;;;34.65;10.60;;;;;;;;;;5078823;28;20817;-55
2022/11/11 03:04:00;;;;;;;23.48;10.45;;;;;;;;;;5085797;28;20024;-57
2022/11/11 03:06:25;;;;;;;31.65;11.10;;;;;;;;;;5081295;28;20051;-55
2022/11/11 03:08:50;;;;;;;26.15;10.73;;;;;;;;;;5086604;28;20051;-56
2022/11/11 03:11:26;;;;;;;30.52;11.93;;;;;;;;;;5086186;28;20046;-57
2022/11/11 03:13:51;;;;;;;24.27;10.25;;;;;;;;;;5087672;28;20039;-57
2022/11/11 03:19:01;;;;;;;21.10;10.50;;;;;;;;;;5081787;28;20078;-57
2022/11/11 03:21:26;;;;;;;33.38;11.07;;;;;;;;;;5074586;28;20025;-57
2022/11/11 03:23:51;;;;;;;21.73;10.13;;;;;;;;;;5082463;28;20023;-58
2022/11/11 03:26:16;;;;;;;24.50;10.57;;;;;;;;;;5078820;28;20023;-56
2022/11/11 03:28:41;;;;;;;16.48;9.43;;;;;;;;;;5075807;28;20106;-57
2022/11/11 03:31:07;;;;;;;19.58;10.07;;;;;;;;;;5087458;28;20008;-57
2022/11/11 03:33:32;;;;;;;26.65;9.80;;;;;;;;;;5077104;28;20564;-57
2022/11/11 03:35:57;;;;;;;28.63;10.80;;;;;;;;;;5080825;28;20526;-57
2022/11/11 03:38:23;;;;;;;25.15;10.52;;;;;;;;;;5084437;28;20039;-57
2022/11/11 03:40:57;;;;;;;25.17;10.85;;;;;;;;;;5086509;28;20372;-57
2022/11/11 03:43:23;;;;;;;22.27;10.20;;;;;;;;;;5079544;28;20035;-57
2022/11/11 03:45:49;;;;;;;30.63;11.52;;;;;;;;;;5085434;28;20026;-57
2022/11/11 03:48:14;;;;;;;32.55;11.10;;;;;;;;;;5080144;28;20645;-57
2022/11/11 03:50:40;;;;;;;20.67;9.70;;;;;;;;;;5077953;28;20098;-56
2022/11/11 03:53:05;;;;;;;24.00;10.00;;;;;;;;;;5073523;28;20038;-57
2022/11/11 03:55:30;;;;;;;28.95;11.10;;;;;;;;;;5113311;27;20047;-57
2022/11/11 03:57:55;;;;;;;28.02;10.57;;;;;;;;;;5080664;28;20046;-56
2022/11/11 04:00:22;;;;;;;31.70;11.43;;;;;;;;;;5108933;27;20051;-56
2022/11/11 04:11:00;;;;;;;31.05;11.60;;;;;;;;;;5074159;28;20442;-56
2022/11/11 04:16:10;;;;;;;37.35;12.30;;;;;;;;;;5069076;28;20073;-56
2022/11/11 04:25:47;;;;;;;19.88;9.18;;;;;;;;;;5075392;28;20077;-57
2022/11/11 04:26:48;;;;;;;25.25;10.55;;;;;;;;;;5073585;28;20040;-55
2022/11/11 04:29:29;;;;;;;27.88;10.88;;;;;;;;;;5078964;28;20021;-58
2022/11/11 04:34:39;;;;;;;30.58;10.77;;;;;;;;;;5075946;28;20043;-56
2022/11/11 04:37:04;;;;;;;26.40;10.70;;;;;;;;;;5086904;28;20020;-56
2022/11/11 04:42:13;;;;;;;28.63;10.82;;;;;;;;;;5078619;28;20482;-56
2022/11/11 04:47:22;;;;;;;21.67;9.07;;;;;;;;;;5077393;28;20386;-56
2022/11/11 04:49:47;;;;;;;28.92;11.15;;;;;;;;;;5078876;28;20027;-56
2022/11/11 04:52:25;;;;;;;31.75;11.80;;;;;;;;;;5080681;28;20025;-57
2022/11/11 04:57:33;;;;;;;25.55;11.07;;;;;;;;;;5075369;28;20035;-57
2022/11/11 04:59:59;;;;;;;23.67;11.10;;;;;;;;;;5085102;28;20031;-57
2022/11/11 05:05:08;;;;;;;21.60;9.70;;;;;;;;;;5092281;28;20104;-57
2022/11/11 05:10:17;;;;;;;25.45;10.85;;;;;;;;;;5077067;28;20223;-57
2022/11/11 05:12:45;;;;;;;26.85;10.85;;;;;;;;;;5082466;28;20015;-57
2022/11/11 05:25:23;;;;;;;24.05;10.35;;;;;;;;;;5072985;28;20062;-58
2022/11/11 05:26:07;;;;;;;29.90;10.98;;;;;;;;;;5077084;28;20027;-57
2022/11/11 05:28:33;;;;;;;30.95;11.45;;;;;;;;;;5079908;28;20043;-58
2022/11/11 05:30:58;;;;;;;28.13;10.73;;;;;;;;;;5080303;28;20016;-56
2022/11/11 05:33:23;;;;;;;30.45;10.45;;;;;;;;;;5073315;28;20098;-57
2022/11/11 05:35:48;;;;;;;24.42;10.88;;;;;;;;;;5080763;28;20027;-57
2022/11/11 05:38:19;;;;;;;32.33;11.38;;;;;;;;;;5077210;28;20020;-56
2022/11/11 05:40:45;;;;;;;34.78;11.95;;;;;;;;;;5070848;28;20039;-57
2022/11/11 05:43:10;;;;;;;28.63;10.95;;;;;;;;;;5070229;28;20020;-56
2022/11/11 05:45:35;;;;;;;28.45;10.70;;;;;;;;;;5075494;28;20063;-56
2022/11/11 05:48:01;;;;;;;25.90;10.95;;;;;;;;;;5072208;28;20032;-57
2022/11/11 05:50:26;;;;;;;26.33;10.95;;;;;;;;;;5071892;28;20221;-57
2022/11/11 05:52:51;;;;;;;21.95;10.10;;;;;;;;;;5071443;28;20471;-57
2022/11/11 05:55:17;;;;;;;23.38;9.45;;;;;;;;;;5088007;28;20016;-57
2022/11/11 05:57:42;;;;;;;25.90;10.80;;;;;;;;;;5077602;28;20043;-57
2022/11/11 06:00:08;;;;;;;22.38;9.80;;;;;;;;;;5086991;28;20423;-57
2022/11/11 06:02:33;;;;;;;21.02;9.88;;;;;;;;;;5085958;28;20074;-57
2022/11/11 06:04:58;;;;;;;21.08;9.88;;;;;;;;;;5080085;28;20417;-57
2022/11/11 06:07:23;;;;;;;19.75;8.30;;;;;;;;;;5080760;28;20024;-57
2022/11/11 06:09:49;;;;;;;22.38;9.52;;;;;;;;;;5081219;28;20085;-57
2022/11/11 06:12:14;;;;;;;23.10;10.10;;;;;;;;;;5090028;28;20016;-57
2022/11/11 06:14:39;;;;;;;28.30;9.65;;;;;;;;;;5085857;28;20122;-57
2022/11/11 06:17:04;;;;;;;24.00;9.93;;;;;;;;;;5095163;28;20027;-57
2022/11/11 06:19:30;;;;;;;28.20;10.32;;;;;;;;;;5075667;28;20033;-56
2022/11/11 06:21:59;;;;;;;20.55;9.30;;;;;;;;;;5076187;28;20405;-56
2022/11/11 06:24:24;;;;;;;24.67;9.93;;;;;;;;;;5076734;28;20027;-57
2022/11/11 06:26:50;;;;;;;27.05;10.38;;;;;;;;;;5074695;28;20012;-57
2022/11/11 06:29:15;;;;;;;23.08;9.20;;;;;;;;;;5078598;28;20036;-57
2022/11/11 06:31:40;;;;;;;24.60;10.05;;;;;;;;;;5068719;28;20021;-57
2022/11/11 06:34:05;;;;;;;21.67;9.48;;;;;;;;;;5080391;28;20458;-56
2022/11/11 06:36:31;;;;;;;19.83;9.43;;;;;;;;;;5072217;28;20110;-57
2022/11/11 06:38:56;;;;;;;20.33;9.73;;;;;;;;;;5080848;28;20047;-55
2022/11/11 06:41:24;;;;;;;22.55;9.55;;;;;;;;;;5083093;28;20028;-56
2022/11/11 06:43:49;;;;;;;20.08;9.50;;;;;;;;;;5077744;28;20099;-56
2022/11/11 06:46:21;;;;;;;24.45;9.45;;;;;;;;;;5078866;28;20111;-57
2022/11/11 06:48:47;;;;;;;22.75;9.60;;;;;;;;;;5074091;28;20020;-56
2022/11/11 06:51:13;;;;;;;24.83;9.82;;;;;;;;;;5070061;28;20024;-56
2022/11/11 06:53:38;;;;;;;19.70;9.20;;;;;;;;;;5072352;28;20127;-56
2022/11/11 06:56:04;;;;;;;28.48;10.05;;;;;;;;;;5077464;28;20099;-56
2022/11/11 06:58:29;;;;;;;23.92;9.30;;;;;;;;;;5075398;28;20525;-57
2022/11/11 07:00:54;;;;;;;18.50;9.23;;;;;;;;;;5072794;28;20116;-56
2022/11/11 07:03:20;;;;;;;21.35;9.23;;;;;;;;;;5056779;28;20493;-57
2022/11/11 07:05:45;;;;;;;18.45;9.07;;;;;;;;;;5079540;28;20187;-57
2022/11/11 07:08:11;;;;;;;16.38;9.05;;;;;;;;;;5077714;28;20469;-56
2022/11/11 07:10:37;;;;;;;22.02;9.70;;;;;;;;;;5077896;28;20127;-57
2022/11/11 07:13:03;;;;;;;25.60;9.73;;;;;;;;;;5075335;28;20146;-57
2022/11/11 07:15:28;;;;;;;22.02;9.50;;;;;;;;;;5077242;28;20034;-56
2022/11/11 07:17:53;;;;;;;21.45;9.93;;;;;;;;;;5079922;28;20379;-56
2022/11/11 07:20:19;;;;;;;27.80;10.07;;;;;;;;;;5083394;28;20077;-56
2022/11/11 07:22:45;;;;;;;22.17;9.05;;;;;;;;;;5077306;28;20036;-56
2022/11/11 07:25:10;;;;;;;25.73;9.77;;;;;;;;;;5085764;28;20401;-56
2022/11/11 07:27:36;;;;;;;21.42;9.07;;;;;;;;;;5083104;28;20493;-56
2022/11/11 07:30:02;;;;;;;21.40;9.43;;;;;;;;;;5080929;28;20035;-57
2022/11/11 07:32:27;;;;;;;19.63;8.65;;;;;;;;;;5075784;28;20017;-57
2022/11/11 07:34:53;;;;;;;24.17;9.55;;;;;;;;;;5077114;28;20034;-57
2022/11/11 07:37:18;;;;;;;20.33;8.82;;;;;;;;;;5072250;28;20069;-58
2022/11/11 07:39:44;;;;;;;20.02;8.52;;;;;;;;;;5075758;28;20024;-57
2022/11/11 07:42:11;;;;;;;21.60;8.90;;;;;;;;;;5071503;28;20454;-57
2022/11/11 07:44:40;;;;;;;16.73;8.98;;;;;;;;;;5110785;27;20201;-57
2022/11/11 07:47:05;;;;;;;21.15;9.80;;;;;;;;;;5073475;28;20028;-57
2022/11/11 07:49:31;;;;;;;17.48;8.25;;;;;;;;;;5074997;28;20012;-57
2022/11/11 07:51:56;;;;;;;18.90;8.43;;;;;;;;;;5069620;28;20031;-57
2022/11/11 07:54:21;;;;;;;20.80;8.15;;;;;;;;;;5104412;27;20032;-56
2022/11/11 07:56:47;;;;;;;20.63;7.70;;;;;;;;;;5108012;27;20017;-57
2022/11/11 07:59:12;;;;;;;19.70;8.02;;;;;;;;;;5076352;28;20024;-56
2022/11/11 08:01:37;;;;;;;17.98;8.10;;;;;;;;;;5081138;28;20031;-57
2022/11/11 08:04:02;;;;;;;20.75;9.65;;;;;;;;;;5080370;28;20027;-57
2022/11/11 08:06:28;;;;;;;20.55;8.32;;;;;;;;;;5083275;28;20079;-56
2022/11/11 08:08:53;;;;;;;24.58;8.40;;;;;;;;;;5074072;28;20024;-56
2022/11/11 08:13:39;;;;;;;19.33;8.60;;;;;;;;;;5069989;28;20024;-57
2022/11/11 08:14:04;;;;;;;22.23;9.02;;;;;;;;;;5071072;28;20419;-57
2022/11/11 08:16:29;;;;;;;22.35;9.07;;;;;;;;;;5078412;28;20074;-57
2022/11/11 08:18:57;;;;;;;22.92;10.57;;;;;;;;;;5076875;28;20039;-57
2022/11/11 08:21:22;;;;;;;13.88;7.15;;;;;;;;;;5077405;28;20024;-57
2022/11/11 08:23:47;;;;;;;16.10;6.90;;;;;;;;;;5074327;28;20023;-57
2022/11/11 08:26:13;;;;;;;20.30;8.18;;;;;;;;;;5079856;28;20077;-59
2022/11/11 08:28:38;;;;;;;15.05;8.18;;;;;;;;;;5081523;28;20044;-57
2022/11/11 08:31:04;;;;;;;15.95;7.43;;;;;;;;;;5079538;28;20473;-57
2022/11/11 08:33:29;;;;;;;15.13;7.20;;;;;;;;;;5070520;28;20347;-57
2022/11/11 08:35:54;;;;;;;18.65;7.55;;;;;;;;;;5083459;28;20378;-57
2022/11/11 08:38:22;;;;;;;14.95;7.45;;;;;;;;;;5076336;28;20107;-57
2022/11/11 08:40:48;;;;;;;13.52;7.28;;;;;;;;;;5104938;27;20510;-57
2022/11/11 08:43:13;;;;;;;14.57;6.93;;;;;;;;;;5079287;28;20025;-57
2022/11/11 08:45:39;;;;;;;17.02;7.18;;;;;;;;;;5084273;28;20111;-57
2022/11/11 08:48:04;;;;;;;15.88;7.05;;;;;;;;;;5087836;28;20023;-57
2022/11/11 08:50:29;;;;;;;12.18;6.72;;;;;;;;;;5080656;28;20017;-57
2022/11/11 08:52:55;;;;;;;15.02;6.78;;;;;;;;;;5080907;28;20490;-57
2022/11/11 08:55:20;;;;;;;19.33;7.03;;;;;;;;;;5085714;28;20031;-57
2022/11/11 08:57:45;;;;;;;14.82;6.35;;;;;;;;;;5076089;28;20036;-58
2022/11/11 09:00:11;;;;;;;15.52;6.43;;;;;;;;;;5075205;28;20031;-57
2022/11/11 09:02:36;;;;;;;14.50;6.60;;;;;;;;;;5077217;28;20128;-57
2022/11/11 09:05:02;;;;;;;14.85;7.43;;;;;;;;;;5072161;28;20637;-57
2022/11/11 09:07:27;;;;;;;14.90;6.43;;;;;;;;;;5079438;28;20590;-57
2022/11/11 09:09:52;;;;;;;12.30;6.25;;;;;;;;;;5082917;27;20028;-57
2022/11/11 09:12:18;;;;;;;11.20;6.03;;;;;;;;;;5076314;28;20028;-57
2022/11/11 09:14:43;;;;;;;12.55;5.78;;;;;;;;;;5075888;28;20054;-58
2022/11/11 09:17:08;;;;;;;13.35;6.65;;;;;;;;;;5065749;28;20026;-57
2022/11/11 09:19:33;;;;;;;13.10;5.95;;;;;;;;;;5078995;28;20066;-57
2022/11/11 09:21:59;;;;;;;14.77;6.50;;;;;;;;;;5091439;28;20023;-57
2022/11/11 09:24:24;;;;;;;12.00;6.35;;;;;;;;;;5088339;28;20024;-58
2022/11/11 09:26:49;;;;;;;13.85;6.35;;;;;;;;;;5081680;28;20111;-58
2022/11/11 09:29:15;;;;;;;10.43;5.57;;;;;;;;;;5083582;28;20113;-58
2022/11/11 09:31:40;;;;;;;14.82;5.75;;;;;;;;;;5086586;28;20016;-58
2022/11/11 09:34:05;;;;;;;15.57;6.00;;;;;;;;;;5085345;28;20516;-58
2022/11/11 09:36:31;;;;;;;11.50;5.57;;;;;;;;;;5081473;28;20066;-57
2022/11/11 09:38:56;;;;;;;9.88;5.63;;;;;;;;;;5081359;28;20512;-58
2022/11/11 09:41:40;;;;;;;11.68;5.97;;;;;;;;;;5076205;28;20081;-57
2022/11/11 09:44:08;;;;;;;11.93;5.38;;;;;;;;;;5094011;28;20023;-58
2022/11/11 09:46:50;;;;;;;9.77;4.90;;;;;;;;;;5078567;28;20024;-57
2022/11/11 09:49:16;;;;;;;11.63;5.13;;;;;;;;;;5074575;28;20028;-55
2022/11/11 09:51:41;;;;;;;12.40;5.47;;;;;;;;;;5087570;28;20030;-58
2022/11/11 09:54:07;;;;;;;9.00;4.78;;;;;;;;;;5078677;28;20024;-58
2022/11/11 09:56:35;;;;;;;12.70;5.45;;;;;;;;;;5083757;28;20031;-57
2022/11/11 09:59:04;;;;;;;9.43;4.47;;;;;;;;;;5073505;28;20703;-58
2022/11/11 10:01:35;;;;;;;10.18;5.07;;;;;;;;;;5082859;28;20025;-57
2022/11/11 10:04:13;;;;;;;12.10;5.47;;;;;;;;;;5090576;28;20470;-57
2022/11/11 10:06:38;;;;;;;11.82;4.97;;;;;;;;;;5076741;28;20398;-58
2022/11/11 10:09:24;;;;;;;11.50;5.00;;;;;;;;;;5083866;28;20048;-57
2022/11/11 10:12:09;;;;;;;9.15;4.72;;;;;;;;;;5072021;28;20766;-57
2022/11/11 10:14:35;;;;;;;11.48;5.03;;;;;;;;;;5085273;28;20032;-57
2022/11/11 10:17:05;;;;;;;11.55;4.97;;;;;;;;;;5081071;28;20016;-57
2022/11/11 10:19:33;;;;;;;9.63;4.97;;;;;;;;;;5085550;28;20028;-56
2022/11/11 10:21:59;;;;;;;9.73;4.88;;;;;;;;;;5081574;28;20031;-57
2022/11/11 10:24:29;;;;;;;8.82;4.65;;;;;;;;;;5081628;28;20028;-57
2022/11/11 10:26:54;;;;;;;10.68;5.05;;;;;;;;;;5075733;28;20043;-57
2022/11/11 10:29:20;;;;;;;11.15;4.95;;;;;;;;;;5084679;28;20032;-57
2022/11/11 10:31:53;;;;;;;9.45;4.70;;;;;;;;;;5082198;28;20004;-57
2022/11/11 10:34:19;;;;;;;10.05;5.43;;;;;;;;;;5083749;28;20123;-57
2022/11/11 10:36:52;;;;;;;8.70;4.80;;;;;;;;;;5080511;28;20157;-58
2022/11/11 10:39:45;;;;;;;8.02;4.35;;;;;;;;;;5079537;28;20073;-56
2022/11/11 10:42:13;;;;;;;11.15;4.70;;;;;;;;;;5082664;28;20027;-56
2022/11/11 10:44:38;;;;;;;10.18;4.65;;;;;;;;;;5080973;28;20031;-58
2022/11/11 10:47:22;;;;;;;9.90;5.07;;;;;;;;;;5083265;28;21582;-56
2022/11/11 10:49:51;;;;;;;8.40;4.38;;;;;;;;;;5075720;28;20031;-57
2022/11/11 10:52:23;;;;;;;10.77;4.95;;;;;;;;;;5118640;27;20502;-57
2022/11/11 10:54:48;;;;;;;8.82;4.40;;;;;;;;;;5079871;28;20622;-56
2022/11/11 10:57:15;;;;;;;7.25;3.97;;;;;;;;;;5085212;28;20013;-56
2022/11/11 10:59:42;;;;;;;8.38;4.25;;;;;;;;;;5085574;28;20019;-57
2022/11/11 11:02:10;;;;;;;7.80;4.47;;;;;;;;;;5070192;28;20036;-57
2022/11/11 11:04:36;;;;;;;11.15;4.70;;;;;;;;;;5084805;28;20064;-57
2022/11/11 11:07:02;;;;;;;10.05;4.57;;;;;;;;;;5072115;28;20017;-57
2022/11/11 11:09:39;;;;;;;9.95;4.80;;;;;;;;;;5112697;27;20023;-57
2022/11/11 11:12:06;;;;;;;10.70;4.60;;;;;;;;;;5066197;28;20055;-57
2022/11/11 11:14:33;;;;;;;9.77;4.32;;;;;;;;;;5087088;28;20062;-57
2022/11/11 11:16:59;;;;;;;7.60;3.75;;;;;;;;;;5086321;28;20620;-57
2022/11/11 11:19:25;;;;;;;6.93;3.53;;;;;;;;;;5079426;28;20089;-57
2022/11/11 11:21:51;;;;;;;11.75;3.88;;;;;;;;;;5073933;28;20135;-58
2022/11/11 11:24:26;;;;;;;9.48;3.83;;;;;;;;;;5079661;28;20016;-56
2022/11/11 11:26:58;;;;;;;9.13;3.60;;;;;;;;;;5087616;28;20657;-57
2022/11/11 11:29:25;;;;;;;8.70;3.85;;;;;;;;;;5083262;28;20055;-57
2022/11/11 11:31:51;;;;;;;7.50;3.22;;;;;;;;;;5078238;28;20020;-57
2022/11/11 11:34:16;;;;;;;5.72;3.15;;;;;;;;;;5071843;28;20512;-57
2022/11/11 11:36:41;;;;;;;5.20;2.75;;;;;;;;;;5074411;28;20413;-56
2022/11/11 11:39:06;;;;;;;6.03;2.70;;;;;;;;;;5074122;28;20062;-57
2022/11/11 11:41:36;;;;;;;7.30;3.15;;;;;;;;;;5082271;28;20677;-56
2022/11/11 11:44:01;;;;;;;5.57;3.17;;;;;;;;;;5077500;28;20103;-57
2022/11/11 11:46:39;;;;;;;7.93;2.70;;;;;;;;;;5103959;27;20466;-57
2022/11/11 11:49:08;;;;;;;4.82;2.85;;;;;;;;;;5092132;28;20400;-57
2022/11/11 11:51:45;;;;;;;7.55;2.90;;;;;;;;;;5084675;28;20560;-56
2022/11/11 11:54:19;;;;;;;6.35;2.47;;;;;;;;;;5071866;28;20127;-56
2022/11/11 11:56:45;;;;;;;9.38;2.58;;;;;;;;;;5073514;28;20027;-57
2022/11/11 11:59:13;;;;;;;7.43;2.60;;;;;;;;;;5105389;27;20047;-57
2022/11/11 12:01:41;;;;;;;7.40;2.63;;;;;;;;;;5078765;28;20020;-57
2022/11/11 12:04:26;;;;;;;5.30;2.40;;;;;;;;;;5110026;27;20012;-57
2022/11/11 12:06:57;;;;;;;6.85;2.58;;;;;;;;;;5072482;28;20036;-57
2022/11/11 12:09:25;;;;;;;3.85;2.20;;;;;;;;;;5080731;28;20111;-56
2022/11/11 12:11:58;;;;;;;3.88;2.30;;;;;;;;;;5076083;28;20048;-56
2022/11/11 12:14:27;;;;;;;8.35;2.45;;;;;;;;;;5077796;28;20454;-56
2022/11/11 12:16:53;;;;;;;6.47;2.53;;;;;;;;;;5073942;28;20072;-55
2022/11/11 12:19:19;;;;;;;8.48;2.63;;;;;;;;;;5075677;28;20062;-55
2022/11/11 12:22:10;;;;;;;4.50;2.05;;;;;;;;;;5074206;28;20054;-55
2022/11/11 12:24:48;;;;;;;7.78;2.72;;;;;;;;;;5073340;28;20032;-56
2022/11/11 12:27:13;;;;;;;7.43;2.60;;;;;;;;;;5107433;27;20026;-56
2022/11/11 12:29:54;;;;;;;5.50;2.50;;;;;;;;;;5077072;28;20024;-56
2022/11/11 12:32:28;;;;;;;7.00;2.58;;;;;;;;;;5076639;28;20073;-56
2022/11/11 12:34:56;;;;;;;6.47;2.83;;;;;;;;;;5072735;28;20062;-56
2022/11/11 12:37:24;;;;;;;9.57;2.38;;;;;;;;;;5070336;28;20028;-56
2022/11/11 12:40:16;;;;;;;6.43;2.30;;;;;;;;;;5074544;28;20071;-56
2022/11/11 12:42:50;;;;;;;7.68;2.50;;;;;;;;;;5075180;28;20066;-56
2022/11/11 12:45:16;;;;;;;7.45;2.72;;;;;;;;;;5076680;28;20047;-56
2022/11/11 12:47:44;;;;;;;4.85;2.25;;;;;;;;;;5071580;28;20066;-56
2022/11/11 12:50:16;;;;;;;5.70;2.40;;;;;;;;;;5081596;28;20028;-58
2022/11/11 12:53:01;;;;;;;5.35;2.10;;;;;;;;;;5084849;28;20033;-57
2022/11/11 12:55:29;;;;;;;4.93;2.47;;;;;;;;;;5072620;28;20036;-57
2022/11/11 12:57:57;;;;;;;4.70;2.38;;;;;;;;;;5076151;28;20024;-58
2022/11/11 13:00:23;;;;;;;6.72;2.60;;;;;;;;;;5076489;28;20027;-57
2022/11/11 13:03:04;;;;;;;5.85;2.50;;;;;;;;;;5078756;28;20407;-56
2022/11/11 13:05:48;;;;;;;6.50;2.92;;;;;;;;;;5071254;28;20347;-56
2022/11/11 13:08:19;;;;;;;4.82;2.30;;;;;;;;;;5075115;28;20028;-59
2022/11/11 13:10:46;;;;;;;5.32;2.50;;;;;;;;;;5071358;28;20073;-55
2022/11/11 13:13:21;;;;;;;5.55;2.05;;;;;;;;;;5075623;28;20056;-57
2022/11/11 13:15:47;;;;;;;7.05;2.25;;;;;;;;;;5067217;28;20016;-58
2022/11/11 13:18:19;;;;;;;6.00;2.35;;;;;;;;;;5074287;28;20118;-57
2022/11/11 13:20:47;;;;;;;6.82;2.53;;;;;;;;;;5078888;28;20026;-55
2022/11/11 13:23:13;;;;;;;4.22;2.20;;;;;;;;;;5078103;28;20054;-57
2022/11/11 13:25:39;;;;;;;5.60;2.42;;;;;;;;;;5071115;28;20086;-57
2022/11/11 13:28:04;;;;;;;5.50;2.13;;;;;;;;;;5077620;28;20066;-57
2022/11/11 13:30:42;;;;;;;7.43;2.25;;;;;;;;;;5077356;28;20127;-55
2022/11/11 13:33:17;;;;;;;6.07;2.20;;;;;;;;;;5075767;28;20020;-55
2022/11/11 13:35:43;;;;;;;5.93;2.60;;;;;;;;;;5073442;28;20028;-57
2022/11/11 13:38:28;;;;;;;7.15;2.08;;;;;;;;;;5078663;28;20028;-56
2022/11/11 13:40:54;;;;;;;4.32;2.40;;;;;;;;;;5061721;28;20035;-58
2022/11/11 13:43:39;;;;;;;4.97;2.30;;;;;;;;;;5074362;28;20013;-55
2022/11/11 13:46:04;;;;;;;9.20;2.00;;;;;;;;;;5073488;28;20135;-58
2022/11/11 13:48:34;;;;;;;6.07;2.53;;;;;;;;;;5078632;28;20103;-57
2022/11/11 13:51:11;;;;;;;6.90;2.28;;;;;;;;;;5074950;28;20369;-55
2022/11/11 13:53:37;;;;;;;5.32;2.42;;;;;;;;;;5079436;28;20071;-58
2022/11/11 13:56:02;;;;;;;6.47;2.63;;;;;;;;;;5076747;28;20053;-55
2022/11/11 13:58:29;;;;;;;3.88;2.28;;;;;;;;;;5075986;28;20059;-58
2022/11/11 14:00:57;;;;;;;8.02;2.60;;;;;;;;;;5076198;28;20536;-57
2022/11/11 14:03:22;;;;;;;5.55;2.30;;;;;;;;;;5064847;28;20021;-57
2022/11/11 14:05:47;;;;;;;7.18;2.50;;;;;;;;;;5078743;28;20376;-57
2022/11/11 14:08:49;;;;;;;7.97;2.10;;;;;;;;;;5080900;28;20146;-54
2022/11/11 14:11:23;;;;;;;10.55;2.47;;;;;;;;;;4982033;28;20026;-57
2022/11/11 14:13:48;;;;;;;6.97;2.15;;;;;;;;;;5059613;28;20047;-57
2022/11/11 14:16:33;;;;;;;5.53;2.03;;;;;;;;;;5076848;28;20025;-55
2022/11/11 14:18:59;;;;;;;4.80;2.10;;;;;;;;;;5077724;28;20072;-55
2022/11/11 14:22:03;;;;;;;6.10;2.40;;;;;;;;;;5080288;28;20028;-55
2022/11/11 14:24:37;;;;;;;6.50;2.80;;;;;;;;;;5021452;28;20029;-55
2022/11/11 14:27:08;;;;;;;7.82;2.78;;;;;;;;;;5021335;28;20116;-56
2022/11/11 14:29:36;;;;;;;6.38;2.90;;;;;;;;;;5059835;28;20028;-55
2022/11/11 14:32:01;;;;;;;11.70;2.50;;;;;;;;;;5076522;28;20373;-55
2022/11/11 14:34:45;;;;;;;5.35;2.50;;;;;;;;;;5080871;28;20032;-56
2022/11/11 14:37:49;;;;;;;7.97;2.75;;;;;;;;;;5079408;28;20012;-54
2022/11/11 14:40:23;;;;;;;6.22;2.33;;;;;;;;;;4999275;28;20125;-55
2022/11/11 14:42:48;;;;;;;6.72;2.92;;;;;;;;;;4987056;28;20536;-55
2022/11/11 14:45:24;;;;;;;6.22;2.67;;;;;;;;;;5026976;28;20050;-55
2022/11/11 14:47:50;;;;;;;5.93;2.70;;;;;;;;;;5081704;28;20012;-55
2022/11/11 14:50:24;;;;;;;5.20;2.30;;;;;;;;;;5081130;28;20113;-55
2022/11/11 14:52:50;;;;;;;10.70;3.25;;;;;;;;;;5080226;28;20008;-57
2022/11/11 14:55:15;;;;;;;8.43;2.40;;;;;;;;;;5078227;28;20026;-56
2022/11/11 14:57:47;;;;;;;4.85;2.30;;;;;;;;;;5078368;28;20025;-58
2022/11/11 15:00:13;;;;;;;4.38;2.30;;;;;;;;;;5081605;28;20024;-58
2022/11/11 15:02:45;;;;;;;5.55;2.35;;;;;;;;;;5077670;28;21006;-57
2022/11/11 15:05:15;;;;;;;13.10;3.75;;;;;;;;;;5067120;28;20128;-57
2022/11/11 15:07:43;;;;;;;7.15;2.42;;;;;;;;;;5083829;28;20062;-58
2022/11/11 15:10:14;;;;;;;5.43;2.30;;;;;;;;;;5073473;28;20028;-58
2022/11/11 15:13:12;;;;;;;6.20;2.40;;;;;;;;;;5081309;28;20081;-56
2022/11/11 15:15:41;;;;;;;6.93;2.60;;;;;;;;;;5060049;28;20299;-57
2022/11/11 15:18:15;;;;;;;4.43;1.90;;;;;;;;;;5105671;27;20035;-57
2022/11/11 15:20:48;;;;;;;5.68;2.15;;;;;;;;;;5073589;28;20020;-57
2022/11/11 15:23:31;;;;;;;5.15;2.22;;;;;;;;;;5076876;28;20021;-56
2022/11/11 15:26:04;;;;;;;4.90;2.13;;;;;;;;;;5081419;28;20016;-57
2022/11/11 15:28:48;;;;;;;4.85;2.33;;;;;;;;;;5079325;28;20020;-55
2022/11/11 15:31:22;;;;;;;8.75;2.35;;;;;;;;;;5084861;28;20030;-56
2022/11/11 15:33:50;;;;;;;5.70;2.30;;;;;;;;;;5087919;28;20019;-56
2022/11/11 15:36:17;;;;;;;6.15;2.53;;;;;;;;;;5084817;28;20359;-56
2022/11/11 15:38:42;;;;;;;3.60;2.58;;;;;;;;;;5079102;28;20031;-57
2022/11/11 15:41:19;;;;;;;5.13;2.40;;;;;;;;;;5084259;28;20017;-57
2022/11/11 15:43:45;;;;;;;5.13;2.50;;;;;;;;;;5079756;28;20059;-57
2022/11/11 15:46:20;;;;;;;5.28;2.83;;;;;;;;;;5080676;28;20366;-58
2022/11/11 15:48:45;;;;;;;6.53;2.65;;;;;;;;;;5114018;27;20070;-56
2022/11/11 15:51:25;;;;;;;5.78;3.17;;;;;;;;;;5065682;28;20032;-56